sensor_id;sensor_type;location;lat;lon;timestamp;P1;durP1;ratioP1;P2;durP2;ratioP2
84695;SDS011;74913;40.204;44.532;2024-03-23T00:52:27;26.52;;;8.57;;
84695;SDS011;74913;40.204;44.532;2024-03-23T00:54:53;22.92;;;8.80;;
84695;SDS011;74913;40.204;44.532;2024-03-23T00:57:19;25.42;;;6.95;;
84695;SDS011;74913;40.204;44.532;2024-03-23T00:59:44;23.15;;;7.70;;
84695;SDS011;74913;40.204;44.532;2024-03-23T01:02:12;22.20;;;8.50;;
84695;SDS011;74913;40.204;44.532;2024-03-23T01:04:38;14.25;;;5.97;;
84695;SDS011;74913;40.204;44.532;2024-03-23T01:07:03;14.45;;;4.32;;
84695;SDS011;74913;40.204;44.532;2024-03-23T01:09:29;14.05;;;5.55;;
84695;SDS011;74913;40.204;44.532;2024-03-23T01:11:55;12.63;;;4.80;;
84695;SDS011;74913;40.204;44.532;2024-03-23T01:14:20;10.48;;;4.53;;
84695;SDS011;74913;40.204;44.532;2024-03-23T01:16:46;7.30;;;2.78;;
84695;SDS011;74913;40.204;44.532;2024-03-23T01:19:12;9.20;;;3.45;;
84695;SDS011;74913;40.204;44.532;2024-03-23T01:21:37;6.00;;;3.15;;
84695;SDS011;74913;40.204;44.532;2024-03-23T01:24:03;7.30;;;2.88;;
84695;SDS011;74913;40.204;44.532;2024-03-23T01:26:28;4.50;;;2.45;;
84695;SDS011;74913;40.204;44.532;2024-03-23T01:28:54;6.95;;;3.40;;
84695;SDS011;74913;40.204;44.532;2024-03-23T01:31:20;5.53;;;3.28;;
84695;SDS011;74913;40.204;44.532;2024-03-23T01:33:46;5.18;;;3.03;;
84695;SDS011;74913;40.204;44.532;2024-03-23T01:36:11;6.43;;;2.80;;
84695;SDS011;74913;40.204;44.532;2024-03-23T01:38:37;6.15;;;2.72;;
84695;SDS011;74913;40.204;44.532;2024-03-23T01:41:03;5.82;;;3.13;;
84695;SDS011;74913;40.204;44.532;2024-03-23T01:43:28;6.70;;;2.95;;
84695;SDS011;74913;40.204;44.532;2024-03-23T01:45:54;5.38;;;3.10;;
84695;SDS011;74913;40.204;44.532;2024-03-23T01:48:20;3.70;;;2.30;;
84695;SDS011;74913;40.204;44.532;2024-03-23T01:50:46;5.63;;;2.78;;
84695;SDS011;74913;40.204;44.532;2024-03-23T01:53:13;4.18;;;2.25;;
84695;SDS011;74913;40.204;44.532;2024-03-23T01:55:42;4.00;;;2.50;;
84695;SDS011;74913;40.204;44.532;2024-03-23T01:58:08;4.38;;;2.53;;
84695;SDS011;74913;40.204;44.532;2024-03-23T02:00:34;4.22;;;2.70;;
84695;SDS011;74913;40.204;44.532;2024-03-23T02:02:59;5.72;;;2.90;;
84695;SDS011;74913;40.204;44.532;2024-03-23T02:05:25;4.60;;;2.85;;
84695;SDS011;74913;40.204;44.532;2024-03-23T02:07:51;3.50;;;2.50;;
84695;SDS011;74913;40.204;44.532;2024-03-23T02:10:17;4.55;;;2.10;;
84695;SDS011;74913;40.204;44.532;2024-03-23T02:12:42;4.10;;;2.45;;
84695;SDS011;74913;40.204;44.532;2024-03-23T02:15:08;3.65;;;2.72;;
84695;SDS011;74913;40.204;44.532;2024-03-23T02:17:34;2.78;;;1.75;;
84695;SDS011;74913;40.204;44.532;2024-03-23T02:22:36;4.80;;;2.30;;
84695;SDS011;74913;40.204;44.532;2024-03-23T02:25:03;3.03;;;1.70;;
84695;SDS011;74913;40.204;44.532;2024-03-23T02:27:32;3.08;;;2.38;;
84695;SDS011;74913;40.204;44.532;2024-03-23T02:29:59;3.28;;;2.33;;
84695;SDS011;74913;40.204;44.532;2024-03-23T02:32:25;3.78;;;2.47;;
84695;SDS011;74913;40.204;44.532;2024-03-23T02:34:51;5.60;;;2.83;;
84695;SDS011;74913;40.204;44.532;2024-03-23T02:37:16;3.65;;;2.20;;
84695;SDS011;74913;40.204;44.532;2024-03-23T02:39:42;2.78;;;2.08;;
84695;SDS011;74913;40.204;44.532;2024-03-23T02:42:08;3.38;;;2.00;;
84695;SDS011;74913;40.204;44.532;2024-03-23T02:44:33;3.85;;;2.40;;
84695;SDS011;74913;40.204;44.532;2024-03-23T02:46:59;3.55;;;2.40;;
84695;SDS011;74913;40.204;44.532;2024-03-23T02:49:25;3.13;;;2.10;;
84695;SDS011;74913;40.204;44.532;2024-03-23T02:51:50;4.35;;;2.80;;
84695;SDS011;74913;40.204;44.532;2024-03-23T02:54:16;4.30;;;2.38;;
84695;SDS011;74913;40.204;44.532;2024-03-23T02:56:42;3.58;;;2.53;;
84695;SDS011;74913;40.204;44.532;2024-03-23T02:59:07;4.95;;;2.20;;
84695;SDS011;74913;40.204;44.532;2024-03-23T03:01:33;3.28;;;2.05;;
84695;SDS011;74913;40.204;44.532;2024-03-23T03:04:00;3.85;;;2.33;;
84695;SDS011;74913;40.204;44.532;2024-03-23T03:06:26;7.47;;;2.88;;
84695;SDS011;74913;40.204;44.532;2024-03-23T03:08:51;4.80;;;2.78;;
84695;SDS011;74913;40.204;44.532;2024-03-23T03:11:17;4.18;;;2.60;;
84695;SDS011;74913;40.204;44.532;2024-03-23T03:13:43;3.72;;;2.25;;
84695;SDS011;74913;40.204;44.532;2024-03-23T03:16:11;3.35;;;2.28;;
84695;SDS011;74913;40.204;44.532;2024-03-23T03:18:38;3.17;;;2.17;;
84695;SDS011;74913;40.204;44.532;2024-03-23T03:21:04;5.10;;;2.53;;
84695;SDS011;74913;40.204;44.532;2024-03-23T03:23:33;4.03;;;2.28;;
84695;SDS011;74913;40.204;44.532;2024-03-23T03:25:59;3.17;;;2.00;;
84695;SDS011;74913;40.204;44.532;2024-03-23T03:28:25;3.05;;;2.10;;
84695;SDS011;74913;40.204;44.532;2024-03-23T03:30:51;4.22;;;2.00;;
84695;SDS011;74913;40.204;44.532;2024-03-23T03:33:17;4.82;;;2.42;;
84695;SDS011;74913;40.204;44.532;2024-03-23T03:35:42;5.10;;;2.63;;
84695;SDS011;74913;40.204;44.532;2024-03-23T03:38:08;5.30;;;2.45;;
84695;SDS011;74913;40.204;44.532;2024-03-23T03:40:34;2.97;;;1.92;;
84695;SDS011;74913;40.204;44.532;2024-03-23T03:43:00;4.30;;;2.85;;
84695;SDS011;74913;40.204;44.532;2024-03-23T03:45:26;4.47;;;3.08;;
84695;SDS011;74913;40.204;44.532;2024-03-23T03:47:52;4.95;;;3.33;;
84695;SDS011;74913;40.204;44.532;2024-03-23T03:50:17;3.92;;;2.97;;
84695;SDS011;74913;40.204;44.532;2024-03-23T03:52:43;6.20;;;2.90;;
84695;SDS011;74913;40.204;44.532;2024-03-23T03:55:12;5.72;;;2.88;;
84695;SDS011;74913;40.204;44.532;2024-03-23T03:57:39;8.57;;;3.10;;
84695;SDS011;74913;40.204;44.532;2024-03-23T04:00:05;6.35;;;2.90;;
84695;SDS011;74913;40.204;44.532;2024-03-23T04:02:31;7.10;;;2.90;;
84695;SDS011;74913;40.204;44.532;2024-03-23T04:04:57;5.88;;;3.10;;
84695;SDS011;74913;40.204;44.532;2024-03-23T04:07:22;5.38;;;2.90;;
84695;SDS011;74913;40.204;44.532;2024-03-23T04:09:49;7.70;;;3.58;;
84695;SDS011;74913;40.204;44.532;2024-03-23T04:12:15;5.70;;;2.75;;
84695;SDS011;74913;40.204;44.532;2024-03-23T04:14:40;7.55;;;4.22;;
84695;SDS011;74913;40.204;44.532;2024-03-23T04:17:06;7.47;;;4.35;;
84695;SDS011;74913;40.204;44.532;2024-03-23T04:19:32;9.10;;;4.60;;
84695;SDS011;74913;40.204;44.532;2024-03-23T04:21:58;10.43;;;4.80;;
84695;SDS011;74913;40.204;44.532;2024-03-23T04:24:23;15.15;;;4.82;;
84695;SDS011;74913;40.204;44.532;2024-03-23T04:26:51;11.52;;;5.22;;
84695;SDS011;74913;40.204;44.532;2024-03-23T04:29:17;19.27;;;5.50;;
84695;SDS011;74913;40.204;44.532;2024-03-23T04:31:42;12.50;;;4.40;;
84695;SDS011;74913;40.204;44.532;2024-03-23T04:34:08;10.60;;;4.68;;
84695;SDS011;74913;40.204;44.532;2024-03-23T04:36:34;7.78;;;3.90;;
84695;SDS011;74913;40.204;44.532;2024-03-23T04:39:00;10.60;;;4.15;;
84695;SDS011;74913;40.204;44.532;2024-03-23T04:41:26;13.18;;;4.93;;
84695;SDS011;74913;40.204;44.532;2024-03-23T04:43:51;9.48;;;4.72;;
84695;SDS011;74913;40.204;44.532;2024-03-23T04:46:17;9.90;;;5.18;;
84695;SDS011;74913;40.204;44.532;2024-03-23T04:48:43;7.70;;;4.05;;
84695;SDS011;74913;40.204;44.532;2024-03-23T04:51:10;7.78;;;3.83;;
84695;SDS011;74913;40.204;44.532;2024-03-23T04:53:38;6.60;;;3.60;;
84695;SDS011;74913;40.204;44.532;2024-03-23T04:56:04;7.40;;;3.67;;
84695;SDS011;74913;40.204;44.532;2024-03-23T04:58:30;5.43;;;3.33;;
84695;SDS011;74913;40.204;44.532;2024-03-23T05:01:03;5.03;;;3.17;;
84695;SDS011;74913;40.204;44.532;2024-03-23T05:03:28;9.38;;;4.05;;
84695;SDS011;74913;40.204;44.532;2024-03-23T05:05:54;6.32;;;4.20;;
84695;SDS011;74913;40.204;44.532;2024-03-23T05:08:20;8.88;;;4.45;;
84695;SDS011;74913;40.204;44.532;2024-03-23T05:10:45;6.55;;;3.95;;
84695;SDS011;74913;40.204;44.532;2024-03-23T05:13:11;4.82;;;3.10;;
84695;SDS011;74913;40.204;44.532;2024-03-23T05:15:37;7.68;;;3.42;;
84695;SDS011;74913;40.204;44.532;2024-03-23T05:18:04;6.15;;;2.85;;
84695;SDS011;74913;40.204;44.532;2024-03-23T05:20:30;5.97;;;3.22;;
84695;SDS011;74913;40.204;44.532;2024-03-23T05:25:22;7.15;;;3.58;;
84695;SDS011;74913;40.204;44.532;2024-03-23T05:27:47;5.97;;;2.90;;
84695;SDS011;74913;40.204;44.532;2024-03-23T05:30:13;4.40;;;2.38;;
84695;SDS011;74913;40.204;44.532;2024-03-23T05:35:14;7.53;;;2.60;;
84695;SDS011;74913;40.204;44.532;2024-03-23T05:37:39;2.97;;;1.73;;
84695;SDS011;74913;40.204;44.532;2024-03-23T05:42:33;4.43;;;1.70;;
84695;SDS011;74913;40.204;44.532;2024-03-23T05:47:24;5.40;;;1.90;;
84695;SDS011;74913;40.204;44.532;2024-03-23T05:52:16;2.35;;;1.45;;
84695;SDS011;74913;40.204;44.532;2024-03-23T05:54:42;4.00;;;1.80;;
84695;SDS011;74913;40.204;44.532;2024-03-23T05:57:08;2.40;;;1.60;;
84695;SDS011;74913;40.204;44.532;2024-03-23T05:59:35;4.20;;;2.20;;
84695;SDS011;74913;40.204;44.532;2024-03-23T06:04:26;6.55;;;2.47;;
84695;SDS011;74913;40.204;44.532;2024-03-23T06:09:20;4.53;;;2.38;;
84695;SDS011;74913;40.204;44.532;2024-03-23T06:14:11;8.40;;;3.03;;
84695;SDS011;74913;40.204;44.532;2024-03-23T06:16:37;5.93;;;3.03;;
84695;SDS011;74913;40.204;44.532;2024-03-23T06:19:03;6.70;;;2.75;;
84695;SDS011;74913;40.204;44.532;2024-03-23T06:21:31;5.03;;;2.33;;
84695;SDS011;74913;40.204;44.532;2024-03-23T06:23:58;5.75;;;2.63;;
84695;SDS011;74913;40.204;44.532;2024-03-23T06:28:51;4.47;;;2.58;;
84695;SDS011;74913;40.204;44.532;2024-03-23T06:31:17;4.95;;;2.50;;
84695;SDS011;74913;40.204;44.532;2024-03-23T06:33:43;4.05;;;2.92;;
84695;SDS011;74913;40.204;44.532;2024-03-23T06:41:06;4.43;;;2.70;;
84695;SDS011;74913;40.204;44.532;2024-03-23T06:43:32;7.45;;;3.30;;
84695;SDS011;74913;40.204;44.532;2024-03-23T06:48:23;12.18;;;3.83;;
84695;SDS011;74913;40.204;44.532;2024-03-23T06:50:49;5.13;;;3.00;;
84695;SDS011;74913;40.204;44.532;2024-03-23T06:53:15;4.30;;;2.80;;
84695;SDS011;74913;40.204;44.532;2024-03-23T06:58:06;11.48;;;3.78;;
84695;SDS011;74913;40.204;44.532;2024-03-23T07:00:33;9.48;;;4.05;;
84695;SDS011;74913;40.204;44.532;2024-03-23T07:05:24;7.35;;;3.00;;
84695;SDS011;74913;40.204;44.532;2024-03-23T07:07:50;11.00;;;3.17;;
84695;SDS011;74913;40.204;44.532;2024-03-23T07:12:41;11.80;;;2.97;;
84695;SDS011;74913;40.204;44.532;2024-03-23T07:15:07;9.00;;;3.00;;
84695;SDS011;74913;40.204;44.532;2024-03-23T07:17:33;22.63;;;4.25;;
84695;SDS011;74913;40.204;44.532;2024-03-23T07:20:00;8.50;;;3.15;;
84695;SDS011;74913;40.204;44.532;2024-03-23T07:22:32;6.90;;;2.97;;
84695;SDS011;74913;40.204;44.532;2024-03-23T07:25:01;11.40;;;3.10;;
84695;SDS011;74913;40.204;44.532;2024-03-23T07:27:28;2.97;;;2.20;;
84695;SDS011;74913;40.204;44.532;2024-03-23T07:29:54;7.57;;;2.85;;
84695;SDS011;74913;40.204;44.532;2024-03-23T07:32:20;11.05;;;2.67;;
84695;SDS011;74913;40.204;44.532;2024-03-23T07:34:46;5.13;;;2.65;;
84695;SDS011;74913;40.204;44.532;2024-03-23T07:37:11;9.20;;;3.63;;
84695;SDS011;74913;40.204;44.532;2024-03-23T07:39:37;4.00;;;2.63;;
84695;SDS011;74913;40.204;44.532;2024-03-23T07:42:03;6.10;;;2.90;;
84695;SDS011;74913;40.204;44.532;2024-03-23T07:44:29;12.07;;;4.22;;
84695;SDS011;74913;40.204;44.532;2024-03-23T07:46:54;8.88;;;3.80;;
84695;SDS011;74913;40.204;44.532;2024-03-23T07:49:20;12.65;;;3.25;;
84695;SDS011;74913;40.204;44.532;2024-03-23T07:51:45;4.57;;;2.88;;
84695;SDS011;74913;40.204;44.532;2024-03-23T07:54:11;10.50;;;3.05;;
84695;SDS011;74913;40.204;44.532;2024-03-23T07:56:37;4.30;;;2.40;;
84695;SDS011;74913;40.204;44.532;2024-03-23T07:59:02;7.70;;;3.97;;
84695;SDS011;74913;40.204;44.532;2024-03-23T08:01:28;10.90;;;4.55;;
84695;SDS011;74913;40.204;44.532;2024-03-23T08:03:54;8.32;;;3.05;;
84695;SDS011;74913;40.204;44.532;2024-03-23T08:06:20;7.20;;;3.75;;
84695;SDS011;74913;40.204;44.532;2024-03-23T08:08:53;5.40;;;2.40;;
84695;SDS011;74913;40.204;44.532;2024-03-23T08:11:27;6.10;;;2.10;;
84695;SDS011;74913;40.204;44.532;2024-03-23T08:13:54;5.35;;;2.75;;
84695;SDS011;74913;40.204;44.532;2024-03-23T08:16:20;3.78;;;2.50;;
84695;SDS011;74913;40.204;44.532;2024-03-23T08:18:46;5.63;;;2.75;;
84695;SDS011;74913;40.204;44.532;2024-03-23T08:21:12;8.25;;;2.75;;
84695;SDS011;74913;40.204;44.532;2024-03-23T08:23:38;6.55;;;2.67;;
84695;SDS011;74913;40.204;44.532;2024-03-23T08:26:05;4.53;;;2.20;;
84695;SDS011;74913;40.204;44.532;2024-03-23T08:28:32;3.80;;;1.75;;
84695;SDS011;74913;40.204;44.532;2024-03-23T08:31:00;5.40;;;2.47;;
84695;SDS011;74913;40.204;44.532;2024-03-23T08:33:27;6.55;;;2.70;;
84695;SDS011;74913;40.204;44.532;2024-03-23T08:35:57;5.88;;;2.17;;
84695;SDS011;74913;40.204;44.532;2024-03-23T08:38:24;7.20;;;2.22;;
84695;SDS011;74913;40.204;44.532;2024-03-23T08:41:00;6.85;;;2.88;;
84695;SDS011;74913;40.204;44.532;2024-03-23T08:43:27;3.78;;;2.53;;
84695;SDS011;74913;40.204;44.532;2024-03-23T08:48:19;6.03;;;2.75;;
84695;SDS011;74913;40.204;44.532;2024-03-23T08:50:58;6.93;;;2.55;;
84695;SDS011;74913;40.204;44.532;2024-03-23T08:53:33;6.20;;;3.22;;
84695;SDS011;74913;40.204;44.532;2024-03-23T08:56:00;9.75;;;3.80;;
84695;SDS011;74913;40.204;44.532;2024-03-23T08:58:27;11.52;;;4.85;;
84695;SDS011;74913;40.204;44.532;2024-03-23T09:00:55;10.38;;;4.85;;
84695;SDS011;74913;40.204;44.532;2024-03-23T09:03:22;21.42;;;5.72;;
84695;SDS011;74913;40.204;44.532;2024-03-23T09:05:49;6.60;;;3.33;;
84695;SDS011;74913;40.204;44.532;2024-03-23T09:08:15;7.57;;;3.90;;
84695;SDS011;74913;40.204;44.532;2024-03-23T09:10:41;8.07;;;3.38;;
84695;SDS011;74913;40.204;44.532;2024-03-23T09:13:07;12.95;;;4.40;;
84695;SDS011;74913;40.204;44.532;2024-03-23T09:15:34;8.52;;;3.95;;
84695;SDS011;74913;40.204;44.532;2024-03-23T09:18:00;16.92;;;4.80;;
84695;SDS011;74913;40.204;44.532;2024-03-23T09:20:26;12.68;;;3.83;;
84695;SDS011;74913;40.204;44.532;2024-03-23T09:22:52;10.30;;;3.90;;
84695;SDS011;74913;40.204;44.532;2024-03-23T09:25:18;7.03;;;3.80;;
84695;SDS011;74913;40.204;44.532;2024-03-23T09:27:46;8.48;;;3.60;;
84695;SDS011;74913;40.204;44.532;2024-03-23T09:30:13;5.28;;;3.60;;
84695;SDS011;74913;40.204;44.532;2024-03-23T09:32:39;7.45;;;3.72;;
84695;SDS011;74913;40.204;44.532;2024-03-23T09:35:07;5.10;;;3.05;;
84695;SDS011;74913;40.204;44.532;2024-03-23T09:39:58;6.75;;;3.38;;
84695;SDS011;74913;40.204;44.532;2024-03-23T09:42:24;8.50;;;3.20;;
84695;SDS011;74913;40.204;44.532;2024-03-23T09:44:50;5.40;;;2.60;;
84695;SDS011;74913;40.204;44.532;2024-03-23T09:47:17;5.63;;;2.60;;
84695;SDS011;74913;40.204;44.532;2024-03-23T09:49:43;5.88;;;2.60;;
84695;SDS011;74913;40.204;44.532;2024-03-23T09:52:09;6.65;;;3.40;;
84695;SDS011;74913;40.204;44.532;2024-03-23T09:54:36;4.10;;;2.50;;
84695;SDS011;74913;40.204;44.532;2024-03-23T09:57:01;3.78;;;2.60;;
84695;SDS011;74913;40.204;44.532;2024-03-23T09:59:29;4.25;;;2.40;;
84695;SDS011;74913;40.204;44.532;2024-03-23T10:01:54;4.03;;;2.30;;
84695;SDS011;74913;40.204;44.532;2024-03-23T10:04:39;6.05;;;2.40;;
84695;SDS011;74913;40.204;44.532;2024-03-23T10:07:13;8.50;;;3.35;;
84695;SDS011;74913;40.204;44.532;2024-03-23T10:09:39;9.85;;;3.92;;
84695;SDS011;74913;40.204;44.532;2024-03-23T10:12:12;8.88;;;3.10;;
84695;SDS011;74913;40.204;44.532;2024-03-23T10:14:41;6.07;;;3.00;;
84695;SDS011;74913;40.204;44.532;2024-03-23T10:17:16;9.23;;;3.78;;
84695;SDS011;74913;40.204;44.532;2024-03-23T10:19:49;6.30;;;2.88;;
84695;SDS011;74913;40.204;44.532;2024-03-23T10:22:20;5.18;;;3.00;;
84695;SDS011;74913;40.204;44.532;2024-03-23T10:24:47;4.72;;;2.78;;
84695;SDS011;74913;40.204;44.532;2024-03-23T10:27:17;6.07;;;3.38;;
84695;SDS011;74913;40.204;44.532;2024-03-23T10:29:47;8.23;;;3.22;;
84695;SDS011;74913;40.204;44.532;2024-03-23T10:32:14;6.40;;;2.88;;
84695;SDS011;74913;40.204;44.532;2024-03-23T10:34:42;6.20;;;3.80;;
84695;SDS011;74913;40.204;44.532;2024-03-23T10:37:08;4.20;;;2.60;;
84695;SDS011;74913;40.204;44.532;2024-03-23T10:42:04;8.88;;;2.95;;
84695;SDS011;74913;40.204;44.532;2024-03-23T10:44:31;6.45;;;3.22;;
84695;SDS011;74913;40.204;44.532;2024-03-23T10:47:03;7.32;;;3.55;;
84695;SDS011;74913;40.204;44.532;2024-03-23T10:49:33;7.32;;;3.83;;
84695;SDS011;74913;40.204;44.532;2024-03-23T10:52:00;5.57;;;2.78;;
84695;SDS011;74913;40.204;44.532;2024-03-23T10:54:30;15.85;;;5.18;;
84695;SDS011;74913;40.204;44.532;2024-03-23T10:59:35;7.70;;;3.10;;
84695;SDS011;74913;40.204;44.532;2024-03-23T11:02:02;11.82;;;3.67;;
84695;SDS011;74913;40.204;44.532;2024-03-23T11:04:32;6.07;;;3.20;;
84695;SDS011;74913;40.204;44.532;2024-03-23T11:06:59;7.10;;;2.97;;
84695;SDS011;74913;40.204;44.532;2024-03-23T11:12:16;3.35;;;2.40;;
84695;SDS011;74913;40.204;44.532;2024-03-23T11:17:34;5.35;;;2.58;;
84695;SDS011;74913;40.204;44.532;2024-03-23T11:25:21;4.47;;;2.50;;
84695;SDS011;74913;40.204;44.532;2024-03-23T11:27:49;3.70;;;2.45;;
84695;SDS011;74913;40.204;44.532;2024-03-23T11:30:19;8.18;;;3.13;;
84695;SDS011;74913;40.204;44.532;2024-03-23T11:32:47;11.93;;;3.20;;
84695;SDS011;74913;40.204;44.532;2024-03-23T11:38:13;11.43;;;4.05;;
84695;SDS011;74913;40.204;44.532;2024-03-23T11:40:47;7.85;;;3.33;;
84695;SDS011;74913;40.204;44.532;2024-03-23T11:43:17;6.25;;;2.97;;
84695;SDS011;74913;40.204;44.532;2024-03-23T11:45:44;5.80;;;3.63;;
84695;SDS011;74913;40.204;44.532;2024-03-23T11:48:12;14.43;;;4.65;;
84695;SDS011;74913;40.204;44.532;2024-03-23T11:50:40;10.98;;;8.02;;
84695;SDS011;74913;40.204;44.532;2024-03-23T11:53:14;6.22;;;4.75;;
84695;SDS011;74913;40.204;44.532;2024-03-23T11:58:12;7.43;;;4.18;;
84695;SDS011;74913;40.204;44.532;2024-03-23T12:00:39;8.00;;;4.93;;
84695;SDS011;74913;40.204;44.532;2024-03-23T12:03:05;5.63;;;3.55;;
84695;SDS011;74913;40.204;44.532;2024-03-23T12:10:53;5.88;;;4.30;;
84695;SDS011;74913;40.204;44.532;2024-03-23T12:13:32;8.25;;;5.00;;
84695;SDS011;74913;40.204;44.532;2024-03-23T12:18:40;9.13;;;5.38;;
84695;SDS011;74913;40.204;44.532;2024-03-23T12:21:07;8.82;;;5.95;;
84695;SDS011;74913;40.204;44.532;2024-03-23T12:23:34;7.47;;;5.57;;
84695;SDS011;74913;40.204;44.532;2024-03-23T12:26:00;10.02;;;6.03;;
84695;SDS011;74913;40.204;44.532;2024-03-23T12:28:26;11.35;;;6.75;;
84695;SDS011;74913;40.204;44.532;2024-03-23T12:30:52;10.60;;;5.93;;
84695;SDS011;74913;40.204;44.532;2024-03-23T12:33:19;12.65;;;7.00;;
84695;SDS011;74913;40.204;44.532;2024-03-23T12:35:46;13.15;;;7.25;;
84695;SDS011;74913;40.204;44.532;2024-03-23T12:38:12;12.68;;;6.78;;
84695;SDS011;74913;40.204;44.532;2024-03-23T12:40:38;9.63;;;5.75;;
84695;SDS011;74913;40.204;44.532;2024-03-23T12:43:03;17.38;;;9.13;;
84695;SDS011;74913;40.204;44.532;2024-03-23T12:45:29;17.40;;;10.07;;
84695;SDS011;74913;40.204;44.532;2024-03-23T12:47:55;22.55;;;12.02;;
84695;SDS011;74913;40.204;44.532;2024-03-23T12:50:20;18.02;;;9.65;;
84695;SDS011;74913;40.204;44.532;2024-03-23T12:52:46;9.48;;;6.53;;
84695;SDS011;74913;40.204;44.532;2024-03-23T12:55:13;9.68;;;6.50;;
84695;SDS011;74913;40.204;44.532;2024-03-23T12:57:39;12.55;;;6.15;;
84695;SDS011;74913;40.204;44.532;2024-03-23T13:00:06;9.50;;;5.80;;
84695;SDS011;74913;40.204;44.532;2024-03-23T13:02:34;9.75;;;5.30;;
84695;SDS011;74913;40.204;44.532;2024-03-23T13:05:00;11.70;;;6.53;;
84695;SDS011;74913;40.204;44.532;2024-03-23T13:07:26;13.73;;;6.82;;
84695;SDS011;74913;40.204;44.532;2024-03-23T13:09:52;15.88;;;6.22;;
84695;SDS011;74913;40.204;44.532;2024-03-23T13:12:19;13.70;;;7.55;;
84695;SDS011;74913;40.204;44.532;2024-03-23T13:14:45;13.63;;;8.43;;
84695;SDS011;74913;40.204;44.532;2024-03-23T13:17:11;10.40;;;7.00;;
84695;SDS011;74913;40.204;44.532;2024-03-23T13:19:37;9.48;;;6.03;;
84695;SDS011;74913;40.204;44.532;2024-03-23T13:22:03;13.27;;;7.65;;
84695;SDS011;74913;40.204;44.532;2024-03-23T13:24:30;14.70;;;8.65;;
84695;SDS011;74913;40.204;44.532;2024-03-23T13:26:56;14.80;;;7.70;;
84695;SDS011;74913;40.204;44.532;2024-03-23T13:29:22;17.10;;;9.30;;
84695;SDS011;74913;40.204;44.532;2024-03-23T13:31:49;15.73;;;9.30;;
84695;SDS011;74913;40.204;44.532;2024-03-23T13:34:16;15.32;;;8.70;;
84695;SDS011;74913;40.204;44.532;2024-03-23T13:36:45;15.63;;;7.55;;
84695;SDS011;74913;40.204;44.532;2024-03-23T13:39:12;10.25;;;7.38;;
84695;SDS011;74913;40.204;44.532;2024-03-23T13:41:42;24.92;;;11.68;;
84695;SDS011;74913;40.204;44.532;2024-03-23T13:44:12;38.55;;;19.10;;
84695;SDS011;74913;40.204;44.532;2024-03-23T13:46:39;52.40;;;22.25;;
84695;SDS011;74913;40.204;44.532;2024-03-23T13:49:08;23.33;;;11.45;;
84695;SDS011;74913;40.204;44.532;2024-03-23T13:51:48;50.65;;;22.10;;
84695;SDS011;74913;40.204;44.532;2024-03-23T13:54:13;40.67;;;18.40;;
84695;SDS011;74913;40.204;44.532;2024-03-23T13:56:39;39.50;;;16.73;;
84695;SDS011;74913;40.204;44.532;2024-03-23T13:59:05;20.65;;;10.43;;
84695;SDS011;74913;40.204;44.532;2024-03-23T14:01:30;12.75;;;7.03;;
84695;SDS011;74913;40.204;44.532;2024-03-23T14:03:57;11.77;;;6.45;;
84695;SDS011;74913;40.204;44.532;2024-03-23T14:06:22;8.52;;;5.57;;
84695;SDS011;74913;40.204;44.532;2024-03-23T14:08:49;12.02;;;5.97;;
84695;SDS011;74913;40.204;44.532;2024-03-23T14:11:17;7.65;;;5.68;;
84695;SDS011;74913;40.204;44.532;2024-03-23T14:13:43;6.57;;;4.40;;
84695;SDS011;74913;40.204;44.532;2024-03-23T14:16:09;9.57;;;6.40;;
84695;SDS011;74913;40.204;44.532;2024-03-23T14:18:35;18.20;;;7.60;;
84695;SDS011;74913;40.204;44.532;2024-03-23T14:21:03;10.65;;;6.68;;
84695;SDS011;74913;40.204;44.532;2024-03-23T14:23:30;9.98;;;5.72;;
84695;SDS011;74913;40.204;44.532;2024-03-23T14:25:59;12.98;;;6.15;;
84695;SDS011;74913;40.204;44.532;2024-03-23T14:28:25;14.02;;;6.35;;
84695;SDS011;74913;40.204;44.532;2024-03-23T14:30:51;9.98;;;4.35;;
84695;SDS011;74913;40.204;44.532;2024-03-23T14:33:22;22.05;;;8.15;;
84695;SDS011;74913;40.204;44.532;2024-03-23T14:35:53;20.88;;;7.32;;
84695;SDS011;74913;40.204;44.532;2024-03-23T14:38:25;32.33;;;8.65;;
84695;SDS011;74913;40.204;44.532;2024-03-23T14:40:50;17.15;;;6.40;;
84695;SDS011;74913;40.204;44.532;2024-03-23T14:43:17;12.30;;;6.72;;
84695;SDS011;74913;40.204;44.532;2024-03-23T14:48:30;11.32;;;5.40;;
84695;SDS011;74913;40.204;44.532;2024-03-23T14:50:57;8.25;;;5.10;;
84695;SDS011;74913;40.204;44.532;2024-03-23T14:53:24;6.05;;;3.88;;
84695;SDS011;74913;40.204;44.532;2024-03-23T14:55:51;4.22;;;3.10;;
84695;SDS011;74913;40.204;44.532;2024-03-23T14:58:19;4.15;;;3.03;;
84695;SDS011;74913;40.204;44.532;2024-03-23T15:00:44;5.07;;;3.10;;
84695;SDS011;74913;40.204;44.532;2024-03-23T15:03:10;3.70;;;2.50;;
84695;SDS011;74913;40.204;44.532;2024-03-23T15:05:36;5.15;;;2.47;;
84695;SDS011;74913;40.204;44.532;2024-03-23T15:08:02;5.60;;;4.05;;
84695;SDS011;74913;40.204;44.532;2024-03-23T15:12:54;3.60;;;2.95;;
84695;SDS011;74913;40.204;44.532;2024-03-23T15:15:20;4.22;;;3.17;;
84695;SDS011;74913;40.204;44.532;2024-03-23T15:17:45;4.70;;;3.13;;
84695;SDS011;74913;40.204;44.532;2024-03-23T15:20:12;5.18;;;3.45;;
84695;SDS011;74913;40.204;44.532;2024-03-23T15:22:38;4.93;;;3.50;;
84695;SDS011;74913;40.204;44.532;2024-03-23T15:25:04;7.07;;;4.95;;
84695;SDS011;74913;40.204;44.532;2024-03-23T15:27:29;7.47;;;4.93;;
84695;SDS011;74913;40.204;44.532;2024-03-23T15:29:58;7.75;;;5.07;;
84695;SDS011;74913;40.204;44.532;2024-03-23T15:32:24;6.68;;;4.72;;
84695;SDS011;74913;40.204;44.532;2024-03-23T15:34:52;7.75;;;5.10;;
84695;SDS011;74913;40.204;44.532;2024-03-23T15:37:18;7.22;;;5.03;;
84695;SDS011;74913;40.204;44.532;2024-03-23T15:39:43;6.28;;;4.78;;
84695;SDS011;74913;40.204;44.532;2024-03-23T15:42:09;7.55;;;4.95;;
84695;SDS011;74913;40.204;44.532;2024-03-23T15:44:35;7.20;;;4.93;;
84695;SDS011;74913;40.204;44.532;2024-03-23T15:47:01;6.88;;;5.35;;
84695;SDS011;74913;40.204;44.532;2024-03-23T15:49:27;7.10;;;4.90;;
84695;SDS011;74913;40.204;44.532;2024-03-23T15:51:53;7.55;;;4.78;;
84695;SDS011;74913;40.204;44.532;2024-03-23T15:54:18;9.93;;;5.38;;
84695;SDS011;74913;40.204;44.532;2024-03-23T15:59:11;9.98;;;6.03;;
84695;SDS011;74913;40.204;44.532;2024-03-23T16:01:37;10.15;;;6.20;;
84695;SDS011;74913;40.204;44.532;2024-03-23T16:04:03;8.52;;;5.72;;
84695;SDS011;74913;40.204;44.532;2024-03-23T16:06:29;10.93;;;7.10;;
84695;SDS011;74913;40.204;44.532;2024-03-23T16:08:55;10.73;;;7.00;;
84695;SDS011;74913;40.204;44.532;2024-03-23T16:11:20;11.00;;;7.63;;
84695;SDS011;74913;40.204;44.532;2024-03-23T16:13:46;10.82;;;7.45;;
84695;SDS011;74913;40.204;44.532;2024-03-23T16:16:12;12.70;;;7.95;;
84695;SDS011;74913;40.204;44.532;2024-03-23T16:18:38;14.30;;;8.70;;
84695;SDS011;74913;40.204;44.532;2024-03-23T16:21:07;12.75;;;8.35;;
84695;SDS011;74913;40.204;44.532;2024-03-23T16:23:34;14.27;;;9.27;;
84695;SDS011;74913;40.204;44.532;2024-03-23T16:26:02;13.77;;;8.32;;
84695;SDS011;74913;40.204;44.532;2024-03-23T16:28:29;12.30;;;8.55;;
84695;SDS011;74913;40.204;44.532;2024-03-23T16:30:57;12.15;;;8.27;;
84695;SDS011;74913;40.204;44.532;2024-03-23T16:33:23;10.68;;;7.72;;
84695;SDS011;74913;40.204;44.532;2024-03-23T16:35:59;9.90;;;6.85;;
84695;SDS011;74913;40.204;44.532;2024-03-23T16:38:28;8.88;;;6.68;;
84695;SDS011;74913;40.204;44.532;2024-03-23T16:40:55;8.55;;;6.28;;